sensor_id;sensor_type;location;lat;lon;timestamp;temperature;humidity
11647;DHT22;5880;52.342;9.662;2023-08-24T00:01:09;21.50;62.70
11647;DHT22;5880;52.342;9.662;2023-08-24T00:03:37;21.40;62.50
11647;DHT22;5880;52.342;9.662;2023-08-24T00:06:03;21.40;62.50
11647;DHT22;5880;52.342;9.662;2023-08-24T00:08:29;21.50;62.70
11647;DHT22;5880;52.342;9.662;2023-08-24T00:10:55;22.20;62.90
11647;DHT22;5880;52.342;9.662;2023-08-24T00:13:21;21.40;62.40
11647;DHT22;5880;52.342;9.662;2023-08-24T00:15:47;21.30;62.50
11647;DHT22;5880;52.342;9.662;2023-08-24T00:18:12;21.30;62.40
11647;DHT22;5880;52.342;9.662;2023-08-24T00:20:38;21.30;62.10
11647;DHT22;5880;52.342;9.662;2023-08-24T00:23:04;21.30;62.10
11647;DHT22;5880;52.342;9.662;2023-08-24T00:25:30;21.20;62.20
11647;DHT22;5880;52.342;9.662;2023-08-24T00:27:56;21.30;62.30
11647;DHT22;5880;52.342;9.662;2023-08-24T00:30:23;21.20;62.30
11647;DHT22;5880;52.342;9.662;2023-08-24T00:32:49;21.20;62.50
11647;DHT22;5880;52.342;9.662;2023-08-24T00:35:14;21.20;62.40
11647;DHT22;5880;52.342;9.662;2023-08-24T00:37:41;21.10;62.50
11647;DHT22;5880;52.342;9.662;2023-08-24T00:40:07;21.10;62.50
11647;DHT22;5880;52.342;9.662;2023-08-24T00:42:40;21.10;62.50
11647;DHT22;5880;52.342;9.662;2023-08-24T00:45:09;21.10;62.60
11647;DHT22;5880;52.342;9.662;2023-08-24T00:47:41;21.00;62.30
11647;DHT22;5880;52.342;9.662;2023-08-24T00:50:10;21.00;62.90
11647;DHT22;5880;52.342;9.662;2023-08-24T00:52:38;21.00;62.30
11647;DHT22;5880;52.342;9.662;2023-08-24T00:55:06;20.90;62.70
11647;DHT22;5880;52.342;9.662;2023-08-24T00:57:33;20.90;62.70
11647;DHT22;5880;52.342;9.662;2023-08-24T01:00:03;20.90;62.80
11647;DHT22;5880;52.342;9.662;2023-08-24T01:02:31;20.90;63.00
11647;DHT22;5880;52.342;9.662;2023-08-24T01:04:58;20.80;62.80
11647;DHT22;5880;52.342;9.662;2023-08-24T01:07:24;21.70;63.50
11647;DHT22;5880;52.342;9.662;2023-08-24T01:09:51;20.80;62.90
11647;DHT22;5880;52.342;9.662;2023-08-24T01:12:29;20.80;62.90
11647;DHT22;5880;52.342;9.662;2023-08-24T01:15:27;20.80;63.40
11647;DHT22;5880;52.342;9.662;2023-08-24T01:18:02;20.80;63.60
11647;DHT22;5880;52.342;9.662;2023-08-24T01:20:31;20.80;63.10
11647;DHT22;5880;52.342;9.662;2023-08-24T01:23:13;20.90;63.00
11647;DHT22;5880;52.342;9.662;2023-08-24T01:25:54;20.80;63.50
11647;DHT22;5880;52.342;9.662;2023-08-24T01:28:34;20.70;63.00
11647;DHT22;5880;52.342;9.662;2023-08-24T01:31:00;20.70;63.00
11647;DHT22;5880;52.342;9.662;2023-08-24T01:33:26;20.80;63.10
11647;DHT22;5880;52.342;9.662;2023-08-24T01:35:51;20.70;63.20
11647;DHT22;5880;52.342;9.662;2023-08-24T01:38:17;21.10;63.40
11647;DHT22;5880;52.342;9.662;2023-08-24T01:43:29;20.60;63.50
11647;DHT22;5880;52.342;9.662;2023-08-24T01:46:00;20.60;63.70
11647;DHT22;5880;52.342;9.662;2023-08-24T01:48:31;20.60;63.30
11647;DHT22;5880;52.342;9.662;2023-08-24T01:50:58;20.50;63.30
11647;DHT22;5880;52.342;9.662;2023-08-24T01:53:27;20.50;63.20
11647;DHT22;5880;52.342;9.662;2023-08-24T01:55:53;20.50;63.30
11647;DHT22;5880;52.342;9.662;2023-08-24T01:58:20;20.50;63.20
11647;DHT22;5880;52.342;9.662;2023-08-24T02:00:46;20.50;63.20
11647;DHT22;5880;52.342;9.662;2023-08-24T02:03:11;20.40;63.20
11647;DHT22;5880;52.342;9.662;2023-08-24T02:05:37;20.50;63.20
11647;DHT22;5880;52.342;9.662;2023-08-24T02:08:03;20.40;63.20
11647;DHT22;5880;52.342;9.662;2023-08-24T02:10:29;20.40;63.30
11647;DHT22;5880;52.342;9.662;2023-08-24T02:12:54;20.40;63.30
11647;DHT22;5880;52.342;9.662;2023-08-24T02:15:20;20.40;63.30
11647;DHT22;5880;52.342;9.662;2023-08-24T02:17:46;20.40;63.20
11647;DHT22;5880;52.342;9.662;2023-08-24T02:20:12;20.30;63.30
11647;DHT22;5880;52.342;9.662;2023-08-24T02:22:38;20.30;63.30
11647;DHT22;5880;52.342;9.662;2023-08-24T02:25:05;20.30;63.40
11647;DHT22;5880;52.342;9.662;2023-08-24T02:27:33;20.30;63.40
11647;DHT22;5880;52.342;9.662;2023-08-24T02:29:59;20.30;63.70
11647;DHT22;5880;52.342;9.662;2023-08-24T02:32:25;20.20;63.40
11647;DHT22;5880;52.342;9.662;2023-08-24T02:34:51;20.20;63.50
11647;DHT22;5880;52.342;9.662;2023-08-24T02:37:17;20.20;63.50
11647;DHT22;5880;52.342;9.662;2023-08-24T02:39:42;20.20;63.50
11647;DHT22;5880;52.342;9.662;2023-08-24T02:42:09;20.10;63.60
11647;DHT22;5880;52.342;9.662;2023-08-24T02:44:34;20.10;63.60
11647;DHT22;5880;52.342;9.662;2023-08-24T02:47:00;20.20;63.70
11647;DHT22;5880;52.342;9.662;2023-08-24T02:49:26;20.10;63.70
11647;DHT22;5880;52.342;9.662;2023-08-24T02:51:51;20.10;63.70
11647;DHT22;5880;52.342;9.662;2023-08-24T02:54:17;20.10;63.80
11647;DHT22;5880;52.342;9.662;2023-08-24T02:56:43;20.00;63.80
11647;DHT22;5880;52.342;9.662;2023-08-24T02:59:08;20.10;64.00
11647;DHT22;5880;52.342;9.662;2023-08-24T03:01:34;20.00;64.10
11647;DHT22;5880;52.342;9.662;2023-08-24T03:04:04;20.00;64.10
11647;DHT22;5880;52.342;9.662;2023-08-24T03:06:30;20.10;64.20
11647;DHT22;5880;52.342;9.662;2023-08-24T03:08:56;20.00;64.20
11647;DHT22;5880;52.342;9.662;2023-08-24T03:11:22;20.00;64.10
11647;DHT22;5880;52.342;9.662;2023-08-24T03:13:47;20.00;64.10
11647;DHT22;5880;52.342;9.662;2023-08-24T03:16:13;20.00;64.10
11647;DHT22;5880;52.342;9.662;2023-08-24T03:18:39;20.00;64.00
11647;DHT22;5880;52.342;9.662;2023-08-24T03:21:05;20.10;64.10
11647;DHT22;5880;52.342;9.662;2023-08-24T03:23:31;19.90;63.90
11647;DHT22;5880;52.342;9.662;2023-08-24T03:25:57;19.90;63.80
11647;DHT22;5880;52.342;9.662;2023-08-24T03:28:23;20.00;63.90
11647;DHT22;5880;52.342;9.662;2023-08-24T03:30:51;19.90;63.90
11647;DHT22;5880;52.342;9.662;2023-08-24T03:33:17;19.80;64.10
11647;DHT22;5880;52.342;9.662;2023-08-24T03:35:44;19.80;63.90
11647;DHT22;5880;52.342;9.662;2023-08-24T03:38:10;19.80;63.90
11647;DHT22;5880;52.342;9.662;2023-08-24T03:40:36;19.80;64.00
11647;DHT22;5880;52.342;9.662;2023-08-24T03:43:03;19.70;64.00
11647;DHT22;5880;52.342;9.662;2023-08-24T03:45:29;19.70;64.10
11647;DHT22;5880;52.342;9.662;2023-08-24T03:47:56;19.70;64.10
11647;DHT22;5880;52.342;9.662;2023-08-24T03:50:21;19.60;64.10
11647;DHT22;5880;52.342;9.662;2023-08-24T03:52:49;19.80;64.40
11647;DHT22;5880;52.342;9.662;2023-08-24T03:55:15;19.60;64.30
11647;DHT22;5880;52.342;9.662;2023-08-24T03:57:41;19.60;64.30
11647;DHT22;5880;52.342;9.662;2023-08-24T04:00:08;19.60;64.40
11647;DHT22;5880;52.342;9.662;2023-08-24T04:02:41;19.60;64.50
11647;DHT22;5880;52.342;9.662;2023-08-24T04:05:07;19.60;64.90
11647;DHT22;5880;52.342;9.662;2023-08-24T04:07:33;19.60;64.60
11647;DHT22;5880;52.342;9.662;2023-08-24T04:10:02;19.50;64.70
11647;DHT22;5880;52.342;9.662;2023-08-24T04:12:30;19.50;64.70
11647;DHT22;5880;52.342;9.662;2023-08-24T04:14:56;19.50;64.70
11647;DHT22;5880;52.342;9.662;2023-08-24T04:17:23;19.50;64.70
11647;DHT22;5880;52.342;9.662;2023-08-24T04:19:49;19.50;64.60
11647;DHT22;5880;52.342;9.662;2023-08-24T04:22:15;19.50;64.60
11647;DHT22;5880;52.342;9.662;2023-08-24T04:24:41;19.50;64.70
11647;DHT22;5880;52.342;9.662;2023-08-24T04:27:07;19.50;64.80
11647;DHT22;5880;52.342;9.662;2023-08-24T04:29:33;19.50;64.90
11647;DHT22;5880;52.342;9.662;2023-08-24T04:31:58;19.50;65.70
11647;DHT22;5880;52.342;9.662;2023-08-24T04:34:24;19.50;65.00
11647;DHT22;5880;52.342;9.662;2023-08-24T04:36:49;19.40;65.00
11647;DHT22;5880;52.342;9.662;2023-08-24T04:39:15;19.40;65.10
11647;DHT22;5880;52.342;9.662;2023-08-24T04:41:42;19.40;65.30
11647;DHT22;5880;52.342;9.662;2023-08-24T04:44:07;19.60;65.40
11647;DHT22;5880;52.342;9.662;2023-08-24T04:46:33;19.40;65.50
11647;DHT22;5880;52.342;9.662;2023-08-24T04:48:59;19.50;66.00
11647;DHT22;5880;52.342;9.662;2023-08-24T04:51:25;19.50;66.10
11647;DHT22;5880;52.342;9.662;2023-08-24T04:53:53;19.60;66.30
11647;DHT22;5880;52.342;9.662;2023-08-24T04:56:19;19.60;66.40
11647;DHT22;5880;52.342;9.662;2023-08-24T04:58:57;19.70;66.60
11647;DHT22;5880;52.342;9.662;2023-08-24T05:01:26;19.80;67.20
11647;DHT22;5880;52.342;9.662;2023-08-24T05:03:53;19.80;66.40
11647;DHT22;5880;52.342;9.662;2023-08-24T05:06:19;19.90;66.60
11647;DHT22;5880;52.342;9.662;2023-08-24T05:08:46;19.90;66.60
11647;DHT22;5880;52.342;9.662;2023-08-24T05:11:17;20.00;66.60
11647;DHT22;5880;52.342;9.662;2023-08-24T05:13:45;20.10;67.30
11647;DHT22;5880;52.342;9.662;2023-08-24T05:16:11;20.10;66.70
11647;DHT22;5880;52.342;9.662;2023-08-24T05:18:39;20.20;66.50
11647;DHT22;5880;52.342;9.662;2023-08-24T05:21:05;20.20;66.30
11647;DHT22;5880;52.342;9.662;2023-08-24T05:23:32;20.30;66.50
11647;DHT22;5880;52.342;9.662;2023-08-24T05:25:59;20.30;66.60
11647;DHT22;5880;52.342;9.662;2023-08-24T05:28:26;20.30;66.60
11647;DHT22;5880;52.342;9.662;2023-08-24T05:30:53;20.40;67.40
11647;DHT22;5880;52.342;9.662;2023-08-24T05:33:20;20.40;66.80
11647;DHT22;5880;52.342;9.662;2023-08-24T05:35:50;20.50;66.90
11647;DHT22;5880;52.342;9.662;2023-08-24T05:38:17;20.50;67.60
11647;DHT22;5880;52.342;9.662;2023-08-24T05:40:45;20.50;67.00
11647;DHT22;5880;52.342;9.662;2023-08-24T05:43:13;20.70;67.00
11647;DHT22;5880;52.342;9.662;2023-08-24T05:45:38;21.00;67.00
11647;DHT22;5880;52.342;9.662;2023-08-24T05:48:06;20.70;66.70
11647;DHT22;5880;52.342;9.662;2023-08-24T05:50:33;20.70;66.30
11647;DHT22;5880;52.342;9.662;2023-08-24T05:52:59;20.80;66.20
11647;DHT22;5880;52.342;9.662;2023-08-24T05:55:24;20.70;65.90
11647;DHT22;5880;52.342;9.662;2023-08-24T05:57:50;21.00;65.90
11647;DHT22;5880;52.342;9.662;2023-08-24T06:00:16;20.70;66.00
11647;DHT22;5880;52.342;9.662;2023-08-24T06:02:42;20.70;66.30
11647;DHT22;5880;52.342;9.662;2023-08-24T06:05:08;20.70;66.20
11647;DHT22;5880;52.342;9.662;2023-08-24T06:07:35;20.70;66.20
11647;DHT22;5880;52.342;9.662;2023-08-24T06:10:01;20.80;66.10
11647;DHT22;5880;52.342;9.662;2023-08-24T06:12:27;20.80;66.20
11647;DHT22;5880;52.342;9.662;2023-08-24T06:14:53;20.80;66.10
11647;DHT22;5880;52.342;9.662;2023-08-24T06:17:18;20.80;66.10
11647;DHT22;5880;52.342;9.662;2023-08-24T06:19:44;20.80;66.30
11647;DHT22;5880;52.342;9.662;2023-08-24T06:22:10;20.80;66.40
11647;DHT22;5880;52.342;9.662;2023-08-24T06:24:35;20.90;66.40
11647;DHT22;5880;52.342;9.662;2023-08-24T06:27:01;20.90;66.50
11647;DHT22;5880;52.342;9.662;2023-08-24T06:29:30;20.90;66.40
11647;DHT22;5880;52.342;9.662;2023-08-24T06:31:56;20.90;66.70
11647;DHT22;5880;52.342;9.662;2023-08-24T06:34:22;20.90;66.50
11647;DHT22;5880;52.342;9.662;2023-08-24T06:36:48;21.00;66.50
11647;DHT22;5880;52.342;9.662;2023-08-24T06:39:15;21.00;66.50
11647;DHT22;5880;52.342;9.662;2023-08-24T06:41:41;21.00;66.90
11647;DHT22;5880;52.342;9.662;2023-08-24T06:44:07;21.10;66.50
11647;DHT22;5880;52.342;9.662;2023-08-24T06:46:33;21.10;66.60
11647;DHT22;5880;52.342;9.662;2023-08-24T06:48:59;21.10;66.70
11647;DHT22;5880;52.342;9.662;2023-08-24T06:51:26;21.20;66.90
11647;DHT22;5880;52.342;9.662;2023-08-24T06:53:52;21.20;66.80
11647;DHT22;5880;52.342;9.662;2023-08-24T06:56:18;21.20;66.90
11647;DHT22;5880;52.342;9.662;2023-08-24T06:58:44;21.30;67.40
11647;DHT22;5880;52.342;9.662;2023-08-24T07:01:10;21.40;67.80
11647;DHT22;5880;52.342;9.662;2023-08-24T07:03:36;21.50;68.70
11647;DHT22;5880;52.342;9.662;2023-08-24T07:06:03;21.80;69.70
11647;DHT22;5880;52.342;9.662;2023-08-24T07:08:31;21.90;69.30
11647;DHT22;5880;52.342;9.662;2023-08-24T07:10:57;22.30;69.10
11647;DHT22;5880;52.342;9.662;2023-08-24T07:13:23;22.80;68.80
11647;DHT22;5880;52.342;9.662;2023-08-24T07:15:48;22.50;67.90
11647;DHT22;5880;52.342;9.662;2023-08-24T07:18:15;22.80;67.60
11647;DHT22;5880;52.342;9.662;2023-08-24T07:20:40;22.70;67.00
11647;DHT22;5880;52.342;9.662;2023-08-24T07:23:06;22.80;66.90
11647;DHT22;5880;52.342;9.662;2023-08-24T07:25:31;22.80;67.00
11647;DHT22;5880;52.342;9.662;2023-08-24T07:27:57;23.10;67.40
11647;DHT22;5880;52.342;9.662;2023-08-24T07:30:28;23.00;67.20
11647;DHT22;5880;52.342;9.662;2023-08-24T07:32:56;23.00;67.20
11647;DHT22;5880;52.342;9.662;2023-08-24T07:35:21;23.20;66.50
11647;DHT22;5880;52.342;9.662;2023-08-24T07:37:50;23.10;66.10
11647;DHT22;5880;52.342;9.662;2023-08-24T07:40:17;23.10;65.90
11647;DHT22;5880;52.342;9.662;2023-08-24T07:42:44;23.30;65.50
11647;DHT22;5880;52.342;9.662;2023-08-24T07:45:11;23.20;65.10
11647;DHT22;5880;52.342;9.662;2023-08-24T07:47:37;23.20;65.20
11647;DHT22;5880;52.342;9.662;2023-08-24T07:50:03;23.20;65.20
11647;DHT22;5880;52.342;9.662;2023-08-24T07:52:29;23.20;65.40
11647;DHT22;5880;52.342;9.662;2023-08-24T07:54:55;23.30;65.70
11647;DHT22;5880;52.342;9.662;2023-08-24T07:57:24;23.40;65.90
11647;DHT22;5880;52.342;9.662;2023-08-24T07:59:51;23.60;66.40
11647;DHT22;5880;52.342;9.662;2023-08-24T08:02:18;23.70;66.70
11647;DHT22;5880;52.342;9.662;2023-08-24T08:04:43;23.80;66.50
11647;DHT22;5880;52.342;9.662;2023-08-24T08:07:09;24.10;66.30
11647;DHT22;5880;52.342;9.662;2023-08-24T08:09:36;24.20;66.30
11647;DHT22;5880;52.342;9.662;2023-08-24T08:12:03;24.20;65.70
11647;DHT22;5880;52.342;9.662;2023-08-24T08:14:29;24.40;65.50
11647;DHT22;5880;52.342;9.662;2023-08-24T08:16:56;24.50;65.40
11647;DHT22;5880;52.342;9.662;2023-08-24T08:19:22;24.50;64.90
11647;DHT22;5880;52.342;9.662;2023-08-24T08:21:50;24.90;64.70
11647;DHT22;5880;52.342;9.662;2023-08-24T08:24:16;24.70;64.30
11647;DHT22;5880;52.342;9.662;2023-08-24T08:26:42;24.70;64.30
11647;DHT22;5880;52.342;9.662;2023-08-24T08:29:08;24.80;63.90
11647;DHT22;5880;52.342;9.662;2023-08-24T08:31:34;24.80;63.50
11647;DHT22;5880;52.342;9.662;2023-08-24T08:33:59;24.80;63.30
11647;DHT22;5880;52.342;9.662;2023-08-24T08:36:25;24.90;63.50
11647;DHT22;5880;52.342;9.662;2023-08-24T08:38:51;24.90;63.30
11647;DHT22;5880;52.342;9.662;2023-08-24T08:41:18;24.90;63.30
11647;DHT22;5880;52.342;9.662;2023-08-24T08:43:48;24.90;63.10
11647;DHT22;5880;52.342;9.662;2023-08-24T08:46:14;25.00;64.20
11647;DHT22;5880;52.342;9.662;2023-08-24T08:48:42;25.00;63.00
11647;DHT22;5880;52.342;9.662;2023-08-24T08:51:10;25.10;63.00
11647;DHT22;5880;52.342;9.662;2023-08-24T08:53:38;25.10;63.20
11647;DHT22;5880;52.342;9.662;2023-08-24T08:56:04;25.20;62.70
11647;DHT22;5880;52.342;9.662;2023-08-24T08:58:33;25.20;62.60
11647;DHT22;5880;52.342;9.662;2023-08-24T09:01:02;25.30;62.40
11647;DHT22;5880;52.342;9.662;2023-08-24T09:03:31;25.40;62.30
11647;DHT22;5880;52.342;9.662;2023-08-24T09:05:58;25.40;62.50
11647;DHT22;5880;52.342;9.662;2023-08-24T09:08:26;25.40;62.80
11647;DHT22;5880;52.342;9.662;2023-08-24T09:10:53;25.50;61.80
11647;DHT22;5880;52.342;9.662;2023-08-24T09:13:20;25.50;62.00
11647;DHT22;5880;52.342;9.662;2023-08-24T09:15:46;25.50;61.80
11647;DHT22;5880;52.342;9.662;2023-08-24T09:18:12;25.60;61.60
11647;DHT22;5880;52.342;9.662;2023-08-24T09:20:38;25.60;61.50
11647;DHT22;5880;52.342;9.662;2023-08-24T09:23:03;25.70;61.60
11647;DHT22;5880;52.342;9.662;2023-08-24T09:25:29;25.80;61.50
11647;DHT22;5880;52.342;9.662;2023-08-24T09:28:04;25.80;61.20
11647;DHT22;5880;52.342;9.662;2023-08-24T09:30:31;25.90;59.90
11647;DHT22;5880;52.342;9.662;2023-08-24T09:33:05;25.90;60.80
11647;DHT22;5880;52.342;9.662;2023-08-24T09:35:36;26.00;60.90
11647;DHT22;5880;52.342;9.662;2023-08-24T09:38:22;26.10;61.30
11647;DHT22;5880;52.342;9.662;2023-08-24T09:40:53;26.20;60.70
11647;DHT22;5880;52.342;9.662;2023-08-24T09:43:20;26.20;60.30
11647;DHT22;5880;52.342;9.662;2023-08-24T09:45:54;26.30;60.60
11647;DHT22;5880;52.342;9.662;2023-08-24T09:48:21;26.30;60.10
11647;DHT22;5880;52.342;9.662;2023-08-24T09:50:50;26.40;60.60
11647;DHT22;5880;52.342;9.662;2023-08-24T09:53:22;26.40;60.00
11647;DHT22;5880;52.342;9.662;2023-08-24T09:56:00;26.50;60.00
11647;DHT22;5880;52.342;9.662;2023-08-24T09:58:28;26.60;58.80
11647;DHT22;5880;52.342;9.662;2023-08-24T10:00:55;26.60;59.90
11647;DHT22;5880;52.342;9.662;2023-08-24T10:03:24;26.60;59.90
11647;DHT22;5880;52.342;9.662;2023-08-24T10:05:54;26.70;59.40
11647;DHT22;5880;52.342;9.662;2023-08-24T10:08:27;26.80;59.60
11647;DHT22;5880;52.342;9.662;2023-08-24T10:10:57;26.90;58.40
11647;DHT22;5880;52.342;9.662;2023-08-24T10:13:51;26.90;59.00
11647;DHT22;5880;52.342;9.662;2023-08-24T10:16:27;26.90;57.70
11647;DHT22;5880;52.342;9.662;2023-08-24T10:18:55;27.00;59.10
11647;DHT22;5880;52.342;9.662;2023-08-24T10:21:23;27.10;59.60
11647;DHT22;5880;52.342;9.662;2023-08-24T10:23:53;27.10;59.30
11647;DHT22;5880;52.342;9.662;2023-08-24T10:26:23;27.20;59.10
11647;DHT22;5880;52.342;9.662;2023-08-24T10:28:50;27.30;59.00
11647;DHT22;5880;52.342;9.662;2023-08-24T10:31:17;27.40;58.80
11647;DHT22;5880;52.342;9.662;2023-08-24T10:33:45;27.50;58.80
11647;DHT22;5880;52.342;9.662;2023-08-24T10:36:15;27.60;57.60
11647;DHT22;5880;52.342;9.662;2023-08-24T10:38:42;27.70;56.90
11647;DHT22;5880;52.342;9.662;2023-08-24T10:41:08;27.70;57.00
11647;DHT22;5880;52.342;9.662;2023-08-24T10:43:38;27.80;56.20
11647;DHT22;5880;52.342;9.662;2023-08-24T10:46:12;27.80;55.50
11647;DHT22;5880;52.342;9.662;2023-08-24T10:53:39;27.90;55.10
11647;DHT22;5880;52.342;9.662;2023-08-24T10:56:13;27.90;54.60
11647;DHT22;5880;52.342;9.662;2023-08-24T10:58:43;27.90;53.90
11647;DHT22;5880;52.342;9.662;2023-08-24T11:01:17;27.90;54.30
11647;DHT22;5880;52.342;9.662;2023-08-24T11:03:54;27.90;52.60
11647;DHT22;5880;52.342;9.662;2023-08-24T11:06:22;28.00;53.70
11647;DHT22;5880;52.342;9.662;2023-08-24T11:08:49;28.00;55.20
11647;DHT22;5880;52.342;9.662;2023-08-24T11:11:30;28.00;54.80
11647;DHT22;5880;52.342;9.662;2023-08-24T11:14:17;28.00;54.30
11647;DHT22;5880;52.342;9.662;2023-08-24T11:17:01;28.00;53.90
11647;DHT22;5880;52.342;9.662;2023-08-24T11:19:48;28.00;54.00
11647;DHT22;5880;52.342;9.662;2023-08-24T11:22:17;28.00;53.50
11647;DHT22;5880;52.342;9.662;2023-08-24T11:24:44;28.00;53.90
11647;DHT22;5880;52.342;9.662;2023-08-24T11:27:10;28.10;53.70
11647;DHT22;5880;52.342;9.662;2023-08-24T11:29:35;28.10;53.50
11647;DHT22;5880;52.342;9.662;2023-08-24T11:32:02;28.10;53.20
11647;DHT22;5880;52.342;9.662;2023-08-24T11:34:29;28.10;52.90
11647;DHT22;5880;52.342;9.662;2023-08-24T11:36:55;28.10;52.50
11647;DHT22;5880;52.342;9.662;2023-08-24T11:39:22;28.10;53.60
11647;DHT22;5880;52.342;9.662;2023-08-24T11:42:02;28.20;52.30
11647;DHT22;5880;52.342;9.662;2023-08-24T11:44:29;28.20;51.40
11647;DHT22;5880;52.342;9.662;2023-08-24T11:47:10;28.20;51.70
11647;DHT22;5880;52.342;9.662;2023-08-24T11:49:35;28.20;53.00
11647;DHT22;5880;52.342;9.662;2023-08-24T11:52:01;28.20;53.60
11647;DHT22;5880;52.342;9.662;2023-08-24T11:54:27;28.30;52.50
11647;DHT22;5880;52.342;9.662;2023-08-24T11:56:53;28.20;51.30
11647;DHT22;5880;52.342;9.662;2023-08-24T11:59:19;28.30;51.50
11647;DHT22;5880;52.342;9.662;2023-08-24T12:01:45;28.30;50.50
11647;DHT22;5880;52.342;9.662;2023-08-24T12:04:12;28.30;49.90
11647;DHT22;5880;52.342;9.662;2023-08-24T12:06:38;28.30;50.00
11647;DHT22;5880;52.342;9.662;2023-08-24T12:09:06;28.40;50.70
11647;DHT22;5880;52.342;9.662;2023-08-24T12:11:35;28.40;49.90
11647;DHT22;5880;52.342;9.662;2023-08-24T12:14:02;28.40;50.00
11647;DHT22;5880;52.342;9.662;2023-08-24T12:16:32;28.40;49.20
11647;DHT22;5880;52.342;9.662;2023-08-24T12:19:00;28.50;48.30
11647;DHT22;5880;52.342;9.662;2023-08-24T12:21:28;28.50;49.90
11647;DHT22;5880;52.342;9.662;2023-08-24T12:24:05;28.60;48.50
11647;DHT22;5880;52.342;9.662;2023-08-24T12:26:34;28.70;46.50
11647;DHT22;5880;52.342;9.662;2023-08-24T12:29:06;28.60;48.40
11647;DHT22;5880;52.342;9.662;2023-08-24T12:31:33;28.70;48.20
11647;DHT22;5880;52.342;9.662;2023-08-24T12:34:04;28.70;47.80
11647;DHT22;5880;52.342;9.662;2023-08-24T12:36:35;28.70;46.90
11647;DHT22;5880;52.342;9.662;2023-08-24T12:39:02;28.80;48.20
11647;DHT22;5880;52.342;9.662;2023-08-24T12:41:31;28.90;48.30
11647;DHT22;5880;52.342;9.662;2023-08-24T12:43:57;28.90;47.40
11647;DHT22;5880;52.342;9.662;2023-08-24T12:46:23;28.90;47.10
11647;DHT22;5880;52.342;9.662;2023-08-24T12:48:49;28.90;46.50
11647;DHT22;5880;52.342;9.662;2023-08-24T12:51:15;29.00;46.30
11647;DHT22;5880;52.342;9.662;2023-08-24T12:53:42;29.00;46.40
11647;DHT22;5880;52.342;9.662;2023-08-24T12:56:08;28.90;45.60
11647;DHT22;5880;52.342;9.662;2023-08-24T12:58:34;29.00;46.60
11647;DHT22;5880;52.342;9.662;2023-08-24T13:01:00;29.00;46.30
11647;DHT22;5880;52.342;9.662;2023-08-24T13:03:26;29.00;46.00
11647;DHT22;5880;52.342;9.662;2023-08-24T13:05:51;29.10;46.80
11647;DHT22;5880;52.342;9.662;2023-08-24T13:08:17;29.10;46.50
11647;DHT22;5880;52.342;9.662;2023-08-24T13:10:43;29.20;46.00
11647;DHT22;5880;52.342;9.662;2023-08-24T13:13:08;29.20;45.90
11647;DHT22;5880;52.342;9.662;2023-08-24T13:15:34;29.30;45.90
11647;DHT22;5880;52.342;9.662;2023-08-24T13:18:00;29.30;46.10
11647;DHT22;5880;52.342;9.662;2023-08-24T13:20:25;29.40;46.50
11647;DHT22;5880;52.342;9.662;2023-08-24T13:22:52;29.40;45.90
11647;DHT22;5880;52.342;9.662;2023-08-24T13:25:18;29.40;46.50
11647;DHT22;5880;52.342;9.662;2023-08-24T13:27:44;29.40;45.70
11647;DHT22;5880;52.342;9.662;2023-08-24T13:30:10;29.40;46.00
11647;DHT22;5880;52.342;9.662;2023-08-24T13:32:36;29.40;45.10
11647;DHT22;5880;52.342;9.662;2023-08-24T13:35:03;29.50;45.10
11647;DHT22;5880;52.342;9.662;2023-08-24T13:37:28;29.50;44.50
11647;DHT22;5880;52.342;9.662;2023-08-24T13:39:54;29.60;44.60
11647;DHT22;5880;52.342;9.662;2023-08-24T13:42:20;29.60;44.60
11647;DHT22;5880;52.342;9.662;2023-08-24T13:44:46;29.70;44.10
11647;DHT22;5880;52.342;9.662;2023-08-24T13:47:12;29.70;44.50
11647;DHT22;5880;52.342;9.662;2023-08-24T13:49:38;29.70;44.00
11647;DHT22;5880;52.342;9.662;2023-08-24T13:52:04;29.80;43.80
11647;DHT22;5880;52.342;9.662;2023-08-24T13:54:29;29.80;44.80
11647;DHT22;5880;52.342;9.662;2023-08-24T13:56:56;29.80;43.90
11647;DHT22;5880;52.342;9.662;2023-08-24T13:59:22;29.80;44.30
11647;DHT22;5880;52.342;9.662;2023-08-24T14:01:47;29.80;43.40
11647;DHT22;5880;52.342;9.662;2023-08-24T14:04:13;29.80;43.50
11647;DHT22;5880;52.342;9.662;2023-08-24T14:06:39;29.80;43.70
11647;DHT22;5880;52.342;9.662;2023-08-24T14:09:06;29.80;43.40
11647;DHT22;5880;52.342;9.662;2023-08-24T14:11:32;29.80;43.00
11647;DHT22;5880;52.342;9.662;2023-08-24T14:13:58;29.80;43.40
11647;DHT22;5880;52.342;9.662;2023-08-24T14:16:25;29.90;44.60
11647;DHT22;5880;52.342;9.662;2023-08-24T14:18:52;29.80;44.40
11647;DHT22;5880;52.342;9.662;2023-08-24T14:21:18;29.80;43.70
11647;DHT22;5880;52.342;9.662;2023-08-24T14:23:46;29.80;43.70
11647;DHT22;5880;52.342;9.662;2023-08-24T14:26:12;29.80;43.40
11647;DHT22;5880;52.342;9.662;2023-08-24T14:28:55;29.80;43.70
11647;DHT22;5880;52.342;9.662;2023-08-24T14:31:27;29.80;43.80
11647;DHT22;5880;52.342;9.662;2023-08-24T14:33:54;29.80;44.40
11647;DHT22;5880;52.342;9.662;2023-08-24T14:36:20;29.80;44.30
11647;DHT22;5880;52.342;9.662;2023-08-24T14:38:48;29.80;43.90
11647;DHT22;5880;52.342;9.662;2023-08-24T14:41:14;29.80;43.60
11647;DHT22;5880;52.342;9.662;2023-08-24T14:43:42;29.90;43.70
11647;DHT22;5880;52.342;9.662;2023-08-24T14:46:08;29.90;43.90
11647;DHT22;5880;52.342;9.662;2023-08-24T14:48:34;29.90;43.50
11647;DHT22;5880;52.342;9.662;2023-08-24T14:51:00;29.90;43.40
11647;DHT22;5880;52.342;9.662;2023-08-24T14:53:27;30.00;43.60
11647;DHT22;5880;52.342;9.662;2023-08-24T14:55:53;29.90;43.60
11647;DHT22;5880;52.342;9.662;2023-08-24T14:58:23;29.90;43.30
11647;DHT22;5880;52.342;9.662;2023-08-24T15:00:51;30.00;43.10
11647;DHT22;5880;52.342;9.662;2023-08-24T15:03:19;30.00;43.50
11647;DHT22;5880;52.342;9.662;2023-08-24T15:05:46;30.00;43.80
11647;DHT22;5880;52.342;9.662;2023-08-24T15:08:22;30.00;43.90
11647;DHT22;5880;52.342;9.662;2023-08-24T15:10:49;29.90;44.20
11647;DHT22;5880;52.342;9.662;2023-08-24T15:13:14;29.90;43.50
11647;DHT22;5880;52.342;9.662;2023-08-24T15:15:40;29.90;43.20
11647;DHT22;5880;52.342;9.662;2023-08-24T15:18:06;29.90;43.00
11647;DHT22;5880;52.342;9.662;2023-08-24T15:20:32;29.90;43.40
11647;DHT22;5880;52.342;9.662;2023-08-24T15:23:01;29.90;44.60
11647;DHT22;5880;52.342;9.662;2023-08-24T15:25:27;29.90;44.30
11647;DHT22;5880;52.342;9.662;2023-08-24T15:27:52;29.80;44.40
11647;DHT22;5880;52.342;9.662;2023-08-24T15:30:18;29.90;44.00
11647;DHT22;5880;52.342;9.662;2023-08-24T15:32:45;29.80;43.80
11647;DHT22;5880;52.342;9.662;2023-08-24T15:35:10;29.80;44.10
11647;DHT22;5880;52.342;9.662;2023-08-24T15:37:36;29.80;44.00
11647;DHT22;5880;52.342;9.662;2023-08-24T15:40:02;29.90;43.60
11647;DHT22;5880;52.342;9.662;2023-08-24T15:42:29;29.80;43.60
11647;DHT22;5880;52.342;9.662;2023-08-24T15:44:55;29.80;43.50
11647;DHT22;5880;52.342;9.662;2023-08-24T15:47:21;29.80;44.00
11647;DHT22;5880;52.342;9.662;2023-08-24T15:49:47;29.70;43.90
11647;DHT22;5880;52.342;9.662;2023-08-24T15:52:13;29.80;43.70
11647;DHT22;5880;52.342;9.662;2023-08-24T15:54:39;29.70;44.40